Maynard, Iowa
Current Conditions -  °F | °C
As of 2:15 PM on Wednesday 28 Jan 2015 (Local Time) from KOLZ Reporting Station
Broken Clouds Broken Clouds  
Wind Chill: 23°   Ceiling: 1700
Heat Index: 36°   Visibility: 9mi
Dew Point: 30°   Wind: 25mph
Humidity: 81%   Direction: 140°SE
Pressure: 29.84"   Gusts: 32mph
Location:  42.77°N, 91.88°W
Report Text: KOLZ 282015Z AUTO 14022G28KT 9SM BKN017 02/M01 A2984 RMK AO2
Loading
Personal Weather Stations






























Interactive Weather Map New forecast layout! Learn more

10-Day Weather Forecast

Advertisements
Track Severe Weather on mobile